Warning: Javascript must be enabled to use all the features on this page!


Page Loading - Please Wait...

Click to hideNews Bulletins

Peak Streamflow for the Nation

USGS 04250750 SANDY CREEK NEAR ADAMS NY

Jefferson County, New York
Hydrologic Unit Code 04140102
Latitude  43°48'48", Longitude  76°04'29" NAD83
Drainage area 137  square miles
Gage datum 523.26 feet above NAVD88
Output formats
Table
Graph
Tab-separated file
peakfq (watstore) format
Reselect output format
Water
Year
Date Gage
Height
(feet)
Stream-
flow
(cfs)
1958 1957-12-21 7.57 4,350
1959 1959-04-02 9.40 6,100
1960 1960-03-31 8.83 6,040
1961 1961-02-25 9.35 6,050
1962 1962-04-07 6.86 3,760
1963 1963-04-04 11.01 7,640
1964 1964-03-05 9.86 6,450
1965 1965-02-12 6.262 3,170
1966 1965-11-27 5.472 2,460
1967 1966-12-08 7.32 4,220
1968 1968-02-02 6.57 3,470
1969 1969-04-10 7.23 4,130
1970 1970-04-09 7.13 4,030
1971 1971-05-03   3,200
1972 1972-07-16 7.61 4,510
1973 1973-02-03 8.49 5,390
1974 1974-04-04 8.99 5,930
1975 1975-09-26 8.66 5,550
1976 1976-05-20 10.26 6,860
1977 1977-03-13 10.69 7,300
1978 1977-10-01 7.57 4,060
1979 1979-03-05 8.94 5,540
1980 1979-11-26 9.83 6,420
1981 1980-12-03 7.66 4,260
1982 1982-03-31 7.55 4,160
1983 1982-10-15 6.63 3,320
1984 1984-02-15 10.57 7,180
1985 1985-02-25 11.05 7,690
1986 1986-03-19 9.32 5,910
1987 1987-06-23 8.13 4,640
1988 1988-03-26 8.32 4,870
1989 1989-03-29 8.96 4,380
1990 1990-01-18 9.93 6,510
1991 1990-12-30 8.44 4,680
1992 1992-07-18 10.14 6,720
1993 1993-04-11 10.58 7,180
1994 1994-04-14 8.58 5,180
1995 1995-01-15 8.10 4,610
1996 1996-01-19 11.06 7,700
1997 1996-11-08 8.382 4,950
1998 1998-01-08 10.68 7,290
1999 1999-01-24 9.522 6,090
2000 1999-11-27 8.57 5,170
2001 2001-04-09 8.51 5,110
2002 2002-04-14 8.06 4,550
2003 2003-03-29 7.69 3,850
2004 2004-03-27 9.46 5,710
2005 2005-04-03 8.95 5,140
2006 2005-11-30 10.02 6,370
2007 2007-03-15 8.22 4,370
2008 2008-04-01 8.33 4,480
2009 2008-12-28 9.67 5,780
2010 2010-01-25   3,0002
2011 2010-10-01 10.02 6,370
2012 2012-03-08 6.502 2,780
2013 2013-03-12 6.412 2,710
2014 2014-04-15 9.53 5,790
2015 2014-11-24 7.85 4,000
2016 2016-02-25 8.66 4,830
2017 2017-02-25 8.51 4,670
2018 2017-10-30 10.572 6,620
2019 2018-12-22 6.572 2,700
2020 2020-03-10 7.76 3,710
?
  Peak Gage-Height Qualification Codes.
?
  Peak Streamflow Qualification Codes.